DTTJ/DJE METAR and TAF weather

Enter ICAO airport designator
Station Type Date Time Source
DTTJ METAR 2018/12/10 20:00 UTC NOAA

DTTJ 102000Z 32009KT CAVOK 16/07 Q1023 NOSIG


Station Type Date Time Source
DTTJ Decoded METAR 2018/12/10 20:00 UTC NOAA

Djerba Mellita, Tunisia (DTTJ) 33-52N 010-46E 4M
Dec 10, 2018 - 03:00 PM EST / 2018.12.10 2000 UTC
Wind: from the NW (320 degrees) at 10 MPH (9 KT):0
Visibility: greater than 7 mile(s):0
Temperature: 60 F (16 C)
Dew Point: 44 F (7 C)
Relative Humidity: 55%
Pressure (altimeter): 30.21 in. Hg (1023 hPa)
ob: DTTJ 102000Z 32009KT CAVOK 16/07 Q1023 NOSIG
cycle: 20

Station Type Date Time Source
DTTJ TAF 2018/12/10 18:42 UTC NOAA

TAF DTTJ 101740Z 1018/1118 26008KT CAVOK
BECMG 1022/1024 34008KT
BECMG 1110/1112 24010KT


Example: see airport list